createdAt,value
2023-03-15T00:00:24.006Z,82.83
2023-03-15T00:02:50.763Z,84.35
2023-03-15T00:05:17.593Z,84.43
2023-03-15T00:07:44.389Z,84.98
2023-03-15T00:10:11.395Z,84.92
2023-03-15T00:12:38.089Z,86.48
2023-03-15T00:15:05.240Z,85.87
2023-03-15T00:17:34.783Z,87.24
2023-03-15T00:20:01.985Z,87.27
2023-03-15T00:22:28.663Z,87.42
2023-03-15T00:24:55.310Z,88.08
2023-03-15T00:27:25.232Z,88.28
2023-03-15T00:29:51.879Z,86.13
2023-03-15T00:32:18.544Z,85.04
2023-03-15T00:34:49.024Z,85.94
2023-03-15T00:37:16.904Z,84.33
2023-03-15T00:39:45.436Z,82.88
2023-03-15T00:42:16.883Z,83.43
2023-03-15T00:44:44.632Z,82.09
2023-03-15T00:47:12.561Z,81.87
2023-03-15T00:49:40.601Z,81.54
2023-03-15T00:52:08.065Z,81.79
2023-03-15T00:54:34.823Z,82.04
2023-03-15T00:57:02.258Z,82.04
2023-03-15T00:59:34.860Z,82.23
2023-03-15T01:02:03.406Z,82.23
2023-03-15T01:04:31.433Z,82.72
2023-03-15T01:06:59.059Z,82.24
2023-03-15T01:09:25.723Z,83.20
2023-03-15T01:11:52.445Z,83.03
2023-03-15T01:14:19.102Z,83.35
2023-03-15T01:16:46.338Z,83.80
2023-03-15T01:19:13.565Z,84.72
2023-03-15T01:21:40.251Z,84.88
2023-03-15T01:24:07.233Z,85.43
2023-03-15T01:26:33.893Z,84.76
2023-03-15T01:29:00.565Z,85.31
2023-03-15T01:31:30.594Z,86.02
2023-03-15T01:33:59.007Z,86.50
2023-03-15T01:36:25.655Z,87.44
2023-03-15T01:38:55.962Z,87.72
2023-03-15T01:41:24.827Z,89.35
2023-03-15T01:43:51.887Z,89.18
2023-03-15T01:46:26.931Z,90.05
2023-03-15T01:49:02.308Z,91.01
2023-03-15T01:51:47.430Z,91.95
2023-03-15T01:54:23.962Z,92.25
2023-03-15T01:56:57.498Z,92.33
2023-03-15T01:59:29.706Z,92.51
2023-03-15T02:01:57.173Z,92.54
2023-03-15T02:04:31.396Z,91.12
2023-03-15T02:07:01.579Z,91.05
2023-03-15T02:09:37.983Z,90.50
2023-03-15T02:12:04.889Z,89.66
2023-03-15T02:14:32.875Z,89.84
2023-03-15T02:16:59.496Z,90.02
2023-03-15T02:19:49.321Z,89.97
2023-03-15T02:22:38.059Z,90.41
2023-03-15T02:25:20.716Z,90.03
2023-03-15T02:27:48.098Z,90.44
2023-03-15T02:30:14.923Z,90.97
2023-03-15T02:32:41.683Z,90.88
2023-03-15T02:35:09.204Z,91.12
2023-03-15T02:37:36.170Z,90.71
2023-03-15T02:40:05.839Z,91.04
2023-03-15T02:42:32.686Z,90.95
2023-03-15T02:44:59.431Z,91.33
2023-03-15T02:47:32.330Z,90.94
2023-03-15T02:49:59.027Z,90.82
2023-03-15T02:52:26.443Z,91.00
2023-03-15T02:54:54.140Z,90.75
2023-03-15T02:57:21.284Z,91.10
2023-03-15T02:59:50.967Z,91.21
2023-03-15T03:02:17.941Z,91.43
2023-03-15T03:04:44.726Z,90.90
2023-03-15T03:07:11.504Z,91.65
2023-03-15T03:09:38.113Z,91.58
2023-03-15T03:12:05.105Z,90.99
2023-03-15T03:14:31.772Z,92.04
2023-03-15T03:16:58.682Z,91.08
2023-03-15T03:19:25.839Z,91.13
2023-03-15T03:21:53.825Z,91.55
2023-03-15T03:24:21.029Z,91.38
2023-03-15T03:26:47.736Z,92.21
2023-03-15T03:29:16.679Z,92.38
2023-03-15T03:31:44.355Z,91.24
2023-03-15T03:34:14.548Z,90.61
2023-03-15T03:36:42.819Z,90.57
2023-03-15T03:39:10.169Z,89.72
2023-03-15T03:41:36.962Z,89.07
2023-03-15T03:44:04.356Z,90.39
2023-03-15T03:46:31.157Z,90.71
2023-03-15T03:48:57.884Z,90.51
2023-03-15T03:51:24.530Z,89.89
2023-03-15T03:53:51.165Z,90.48
2023-03-15T03:56:17.908Z,90.81
2023-03-15T03:58:44.543Z,90.97
2023-03-15T04:01:11.703Z,91.24
2023-03-15T04:03:38.332Z,91.21
2023-03-15T04:06:05.788Z,90.79
2023-03-15T04:08:32.518Z,91.35
2023-03-15T04:10:59.508Z,91.62
2023-03-15T04:13:26.178Z,91.49
2023-03-15T04:15:57.658Z,91.91
2023-03-15T04:18:25.009Z,91.93
2023-03-15T04:20:54.764Z,92.15
2023-03-15T04:23:23.469Z,91.59
2023-03-15T04:25:52.194Z,91.05
2023-03-15T04:28:23.019Z,90.68
2023-03-15T04:30:50.622Z,90.53
2023-03-15T04:33:17.447Z,90.60
2023-03-15T04:35:44.177Z,90.47
2023-03-15T04:38:10.976Z,90.90
2023-03-15T04:40:37.752Z,90.04
2023-03-15T04:43:05.753Z,90.47
2023-03-15T04:45:32.625Z,90.29
2023-03-15T04:48:00.292Z,90.82
2023-03-15T04:50:27.767Z,91.26
2023-03-15T04:52:54.832Z,90.86
2023-03-15T04:55:21.520Z,90.46
2023-03-15T04:57:48.265Z,90.56
2023-03-15T05:00:15.285Z,90.50
2023-03-15T05:02:42.298Z,90.28
2023-03-15T05:05:10.375Z,90.07
2023-03-15T05:07:38.159Z,90.41
2023-03-15T05:10:06.438Z,90.89
2023-03-15T05:12:34.056Z,91.09
2023-03-15T05:15:00.895Z,91.26
2023-03-15T05:17:28.047Z,91.40
2023-03-15T05:19:54.874Z,91.79
2023-03-15T05:22:25.970Z,91.98
2023-03-15T05:24:53.821Z,92.15
2023-03-15T05:27:20.899Z,92.70
2023-03-15T05:29:47.652Z,92.83
2023-03-15T05:32:14.386Z,93.32
2023-03-15T05:34:42.768Z,93.95
2023-03-15T05:37:10.337Z,94.18
2023-03-15T05:39:42.523Z,95.37
2023-03-15T05:42:09.167Z,96.66
2023-03-15T05:44:35.752Z,97.76
2023-03-15T05:47:02.545Z,97.37
2023-03-15T05:49:29.171Z,97.36
2023-03-15T05:51:55.815Z,98.35
2023-03-15T05:54:22.695Z,98.23
2023-03-15T05:56:49.306Z,97.85
2023-03-15T05:59:15.967Z,98.52
2023-03-15T06:01:42.570Z,97.61
2023-03-15T06:04:09.364Z,98.53
2023-03-15T06:06:36.047Z,99.84
2023-03-15T06:09:02.667Z,100.00
2023-03-15T06:11:29.327Z,100.00
2023-03-15T06:13:55.942Z,100.00
2023-03-15T06:16:22.597Z,100.00
2023-03-15T06:18:49.305Z,100.00
2023-03-15T06:21:15.918Z,100.00
2023-03-15T06:23:42.579Z,100.00
2023-03-15T06:26:09.336Z,100.00
2023-03-15T06:28:36.007Z,100.00
2023-03-15T06:31:11.938Z,100.00
2023-03-15T06:33:39.247Z,100.00
2023-03-15T06:36:06.441Z,100.00
2023-03-15T06:38:33.239Z,100.00
2023-03-15T06:41:01.284Z,100.00
2023-03-15T06:43:28.627Z,100.00
2023-03-15T06:45:56.802Z,100.00
2023-03-15T06:48:23.467Z,100.00
2023-03-15T06:50:50.162Z,100.00
2023-03-15T06:53:17.776Z,100.00
2023-03-15T06:55:45.465Z,100.00
2023-03-15T06:58:13.040Z,100.00
2023-03-15T07:00:40.162Z,100.00
2023-03-15T07:03:06.764Z,100.00
2023-03-15T07:05:33.419Z,100.00
2023-03-15T07:08:00.065Z,100.00
2023-03-15T07:10:27.050Z,100.00
2023-03-15T07:12:53.698Z,100.00
2023-03-15T07:15:20.405Z,100.00
2023-03-15T07:17:47.086Z,100.00
2023-03-15T07:20:13.940Z,100.00
2023-03-15T07:22:40.724Z,100.00
2023-03-15T07:25:07.686Z,100.00
2023-03-15T07:27:34.416Z,100.00
2023-03-15T07:30:01.413Z,100.00
2023-03-15T07:32:28.303Z,100.00
2023-03-15T07:34:58.313Z,100.00
2023-03-15T07:37:25.004Z,100.00
2023-03-15T07:39:51.665Z,100.00
2023-03-15T07:42:18.394Z,100.00
2023-03-15T07:44:45.038Z,100.00
2023-03-15T07:47:11.732Z,100.00
2023-03-15T07:49:38.367Z,100.00
2023-03-15T07:52:05.113Z,100.00
2023-03-15T07:54:32.084Z,100.00
2023-03-15T07:56:58.822Z,100.00
2023-03-15T07:59:25.802Z,100.00
2023-03-15T08:01:52.476Z,100.00
2023-03-15T08:04:19.155Z,100.00
2023-03-15T08:06:45.782Z,100.00
2023-03-15T08:09:12.419Z,100.00
2023-03-15T08:11:39.107Z,100.00
2023-03-15T08:14:05.894Z,100.00
2023-03-15T08:16:32.610Z,100.00
2023-03-15T08:18:59.276Z,100.00
2023-03-15T08:21:26.032Z,100.00
2023-03-15T08:23:52.781Z,100.00
2023-03-15T08:26:19.425Z,100.00
2023-03-15T08:28:49.237Z,100.00
2023-03-15T08:31:15.965Z,100.00
2023-03-15T08:33:42.697Z,100.00
2023-03-15T08:36:09.635Z,100.00
2023-03-15T08:38:36.576Z,100.00
2023-03-15T08:41:03.594Z,100.00
2023-03-15T08:43:30.495Z,100.00
2023-03-15T08:46:01.260Z,100.00
2023-03-15T08:48:28.648Z,100.00
2023-03-15T08:53:35.518Z,100.00
2023-03-15T08:56:02.163Z,100.00
2023-03-15T08:58:28.773Z,100.00
2023-03-15T09:00:55.589Z,100.00
2023-03-15T09:03:22.628Z,100.00
2023-03-15T09:05:49.745Z,100.00
2023-03-15T09:08:21.069Z,100.00
2023-03-15T09:10:47.703Z,100.00
2023-03-15T09:13:14.339Z,100.00
2023-03-15T09:15:40.956Z,100.00
2023-03-15T09:18:08.271Z,100.00
2023-03-15T09:20:34.937Z,100.00
2023-03-15T09:23:01.612Z,100.00
2023-03-15T09:25:28.281Z,100.00
2023-03-15T09:27:55.134Z,98.41
2023-03-15T09:30:22.044Z,96.14
2023-03-15T09:32:49.202Z,95.19
2023-03-15T09:35:18.889Z,94.86
2023-03-15T09:37:46.361Z,95.67
2023-03-15T09:40:22.163Z,97.88
2023-03-15T09:43:04.125Z,96.94
2023-03-15T09:45:46.407Z,93.29
2023-03-15T09:48:25.131Z,88.02
2023-03-15T09:50:57.183Z,85.51
2023-03-15T09:53:27.808Z,87.87
2023-03-15T09:55:55.454Z,84.24
2023-03-15T09:58:26.895Z,84.03
2023-03-15T10:00:58.176Z,82.11
2023-03-15T10:03:49.198Z,81.97
2023-03-15T10:06:30.280Z,83.51
2023-03-15T10:08:59.482Z,81.39
2023-03-15T10:11:56.494Z,78.02
2023-03-15T10:14:58.278Z,72.50
2023-03-15T10:17:34.019Z,74.16
2023-03-15T10:20:10.298Z,74.42
2023-03-15T10:22:45.280Z,78.03
2023-03-15T10:25:17.947Z,76.80
2023-03-15T10:28:09.571Z,75.16
2023-03-15T10:30:38.503Z,74.85
2023-03-15T10:33:18.257Z,75.20
2023-03-15T10:35:44.954Z,75.53
2023-03-15T10:38:17.374Z,75.40
2023-03-15T10:40:45.986Z,75.93
2023-03-15T10:43:22.948Z,75.07
2023-03-15T10:46:06.677Z,77.58
2023-03-15T10:48:35.860Z,77.61
2023-03-15T10:51:19.608Z,75.67
2023-03-15T10:54:06.733Z,75.27
2023-03-15T10:56:47.268Z,75.98
2023-03-15T10:59:25.073Z,77.56
2023-03-15T11:01:54.119Z,76.22
2023-03-15T11:04:23.863Z,74.31
2023-03-15T11:07:03.469Z,76.12
2023-03-15T11:09:51.226Z,72.07
2023-03-15T11:12:27.705Z,71.04
2023-03-15T11:15:19.792Z,68.65
2023-03-15T11:17:49.875Z,66.77
2023-03-15T11:20:30.571Z,66.07
2023-03-15T11:22:58.524Z,69.59
2023-03-15T11:25:31.795Z,66.97
2023-03-15T11:27:59.883Z,71.08
2023-03-15T11:30:30.059Z,69.72
2023-03-15T11:33:01.687Z,64.81
2023-03-15T11:35:36.537Z,64.07
2023-03-15T11:38:15.187Z,64.73
2023-03-15T11:40:48.179Z,63.40
2023-03-15T11:43:18.695Z,64.09
2023-03-15T11:45:55.695Z,60.10
2023-03-15T11:48:26.836Z,63.21
2023-03-15T11:50:55.427Z,63.41
2023-03-15T11:53:25.594Z,64.10
2023-03-15T11:55:55.902Z,62.88
2023-03-15T11:58:34.291Z,62.13
2023-03-15T12:01:03.524Z,65.36
2023-03-15T12:03:37.081Z,61.68
2023-03-15T12:06:06.868Z,63.67
2023-03-15T12:08:35.530Z,66.03
2023-03-15T12:11:10.000Z,65.41
2023-03-15T12:13:36.665Z,65.68
2023-03-15T12:16:06.751Z,67.28
2023-03-15T12:18:43.712Z,60.72
2023-03-15T12:21:15.505Z,58.75
2023-03-15T12:23:47.024Z,61.27
2023-03-15T12:26:40.438Z,61.25
2023-03-15T12:29:20.036Z,57.04
2023-03-15T12:31:52.449Z,58.03
2023-03-15T12:34:28.927Z,59.07
2023-03-15T12:37:02.309Z,57.25
2023-03-15T12:39:46.329Z,58.77
2023-03-15T12:42:34.107Z,60.13
2023-03-15T12:45:16.010Z,59.52
2023-03-15T12:47:47.911Z,58.56
2023-03-15T12:50:45.637Z,61.41
2023-03-15T12:53:27.652Z,59.07
2023-03-15T12:56:02.821Z,57.49
2023-03-15T12:58:38.562Z,53.16
2023-03-15T13:01:08.089Z,55.52
2023-03-15T13:03:36.229Z,53.07
2023-03-15T13:06:35.965Z,54.49
2023-03-15T13:09:19.881Z,55.62
2023-03-15T13:11:54.458Z,54.84
2023-03-15T13:14:43.014Z,56.44
2023-03-15T13:17:24.558Z,53.16
2023-03-15T13:20:05.990Z,52.08
2023-03-15T13:22:55.461Z,54.89
2023-03-15T13:25:34.591Z,56.89
2023-03-15T13:28:22.488Z,54.71
2023-03-15T13:30:52.643Z,52.07
2023-03-15T13:33:31.432Z,52.00
2023-03-15T13:36:01.857Z,50.87
2023-03-15T13:38:35.001Z,52.27
2023-03-15T13:41:15.527Z,51.79
2023-03-15T13:43:42.448Z,51.35
2023-03-15T13:46:09.396Z,54.50
2023-03-15T13:48:40.737Z,53.07
2023-03-15T13:51:19.198Z,53.43
2023-03-15T13:53:50.341Z,51.81
2023-03-15T13:56:21.021Z,52.40
2023-03-15T13:58:49.401Z,52.46
2023-03-15T14:01:17.394Z,52.51
2023-03-15T14:03:53.819Z,52.20
2023-03-15T14:06:24.942Z,50.77
2023-03-15T14:08:59.359Z,53.43
2023-03-15T14:11:25.967Z,55.83
2023-03-15T14:13:58.452Z,56.54
2023-03-15T14:17:01.257Z,56.08
2023-03-15T14:19:32.854Z,54.75
2023-03-15T14:22:02.271Z,52.69
2023-03-15T14:24:37.369Z,52.61
2023-03-15T14:27:22.038Z,51.19
2023-03-15T14:29:52.110Z,52.06
2023-03-15T14:32:33.865Z,51.94
2023-03-15T14:35:08.094Z,53.63
2023-03-15T14:37:41.390Z,51.21
2023-03-15T14:40:21.117Z,50.71
2023-03-15T14:42:50.632Z,50.22
2023-03-15T14:45:18.670Z,49.62
2023-03-15T14:47:56.665Z,48.93
2023-03-15T14:50:27.948Z,50.65
2023-03-15T14:52:56.764Z,50.00
2023-03-15T14:55:28.410Z,51.67
2023-03-15T14:57:55.475Z,48.92
2023-03-15T15:00:22.614Z,49.16
2023-03-15T15:02:53.712Z,48.55
2023-03-15T15:05:24.780Z,48.89
2023-03-15T15:07:55.714Z,48.19
2023-03-15T15:10:24.172Z,49.02
2023-03-15T15:13:05.230Z,50.07
2023-03-15T15:15:43.781Z,49.16
2023-03-15T15:18:18.165Z,49.06
2023-03-15T15:20:45.306Z,50.09
2023-03-15T15:23:23.058Z,49.84
2023-03-15T15:25:51.683Z,49.06
2023-03-15T15:28:33.304Z,48.39
2023-03-15T15:31:01.159Z,48.93
2023-03-15T15:33:27.829Z,48.84
2023-03-15T15:35:56.407Z,49.30
2023-03-15T15:38:34.808Z,50.54
2023-03-15T15:41:01.777Z,49.38
2023-03-15T15:43:28.843Z,49.86
2023-03-15T15:45:55.457Z,50.39
2023-03-15T15:48:22.306Z,51.80
2023-03-15T15:50:49.229Z,49.62
2023-03-15T15:53:18.184Z,49.52
2023-03-15T15:55:45.920Z,49.45
2023-03-15T15:58:14.098Z,49.72
2023-03-15T16:00:40.782Z,51.07
2023-03-15T16:03:15.345Z,51.09
2023-03-15T16:05:42.573Z,52.47
2023-03-15T16:08:21.191Z,51.30
2023-03-15T16:10:48.129Z,52.15
2023-03-15T16:13:15.287Z,52.73
2023-03-15T16:15:41.958Z,52.86
2023-03-15T16:18:10.818Z,52.76
2023-03-15T16:20:39.151Z,51.51
2023-03-15T16:23:06.275Z,51.43
2023-03-15T16:25:36.299Z,53.05
2023-03-15T16:28:05.253Z,53.23
2023-03-15T16:30:35.707Z,53.29
2023-03-15T16:33:02.375Z,53.81
2023-03-15T16:35:33.915Z,54.21
2023-03-15T16:38:01.764Z,55.19
2023-03-15T16:40:31.919Z,54.68
2023-03-15T16:42:59.585Z,55.52
2023-03-15T16:45:27.057Z,55.71
2023-03-15T16:47:53.938Z,56.09
2023-03-15T16:50:20.745Z,56.53
2023-03-15T16:52:51.819Z,56.78
2023-03-15T16:55:23.626Z,57.12
2023-03-15T16:57:50.330Z,59.16
2023-03-15T17:00:18.369Z,59.84
2023-03-15T17:02:47.424Z,60.31
2023-03-15T17:05:18.903Z,61.74
2023-03-15T17:07:51.171Z,62.31
2023-03-15T17:10:23.157Z,63.72
2023-03-15T17:12:52.380Z,64.23
2023-03-15T17:15:23.945Z,65.28
2023-03-15T17:17:52.713Z,66.71
2023-03-15T17:20:21.949Z,67.60
2023-03-15T17:22:51.156Z,67.40
2023-03-15T17:25:18.946Z,68.17
2023-03-15T17:27:46.866Z,68.77
2023-03-15T17:30:18.169Z,68.98
2023-03-15T17:32:45.446Z,70.13
2023-03-15T17:35:13.976Z,69.67
2023-03-15T17:37:44.726Z,69.71
2023-03-15T17:40:21.258Z,70.76
2023-03-15T17:42:51.668Z,71.57
2023-03-15T17:45:24.645Z,72.27
2023-03-15T17:47:52.015Z,72.32
2023-03-15T17:50:19.148Z,72.69
2023-03-15T17:52:48.275Z,74.44
2023-03-15T17:55:18.566Z,74.97
2023-03-15T17:57:54.002Z,76.04
2023-03-15T18:00:22.165Z,75.17
2023-03-15T18:02:55.692Z,76.21
2023-03-15T18:05:25.804Z,76.83
2023-03-15T18:08:00.544Z,77.83
2023-03-15T18:10:43.955Z,78.21
2023-03-15T18:13:14.295Z,78.85
2023-03-15T18:15:41.484Z,79.11
2023-03-15T18:18:08.230Z,80.05
2023-03-15T18:20:35.292Z,79.98
2023-03-15T18:23:02.512Z,81.22
2023-03-15T18:25:32.060Z,81.84
2023-03-15T18:27:59.438Z,82.53
2023-03-15T18:30:28.340Z,82.58
2023-03-15T18:32:56.560Z,83.23
2023-03-15T18:35:27.879Z,83.76
2023-03-15T18:37:56.143Z,84.66
2023-03-15T18:40:24.664Z,84.84
2023-03-15T18:42:51.450Z,85.46
2023-03-15T18:45:29.805Z,85.39
2023-03-15T18:47:57.118Z,85.42
2023-03-15T18:50:23.894Z,85.35
2023-03-15T18:52:51.446Z,86.35
2023-03-15T18:55:22.086Z,86.31
2023-03-15T18:57:50.572Z,86.56
2023-03-15T19:00:25.963Z,86.38
2023-03-15T19:02:55.695Z,86.09
2023-03-15T19:05:22.403Z,86.26
2023-03-15T19:07:49.148Z,86.41
2023-03-15T19:10:19.120Z,86.35
2023-03-15T19:12:46.464Z,86.79
2023-03-15T19:15:17.348Z,87.48
2023-03-15T19:17:46.254Z,87.71
2023-03-15T19:20:15.234Z,88.83
2023-03-15T19:22:42.517Z,89.22
2023-03-15T19:25:13.832Z,89.21
2023-03-15T19:27:42.020Z,89.47
2023-03-15T19:30:12.049Z,90.27
2023-03-15T19:32:40.428Z,90.50
2023-03-15T19:35:07.610Z,91.24
2023-03-15T19:37:34.348Z,91.02
2023-03-15T19:40:01.167Z,91.61
2023-03-15T19:42:27.986Z,91.47
2023-03-15T19:44:54.610Z,91.04
2023-03-15T19:47:21.257Z,91.24
2023-03-15T19:49:47.858Z,91.21
2023-03-15T19:52:16.036Z,91.03
2023-03-15T19:54:42.682Z,91.28
2023-03-15T19:57:09.419Z,91.38
2023-03-15T19:59:39.890Z,91.18
2023-03-15T20:02:10.454Z,90.68
2023-03-15T20:04:37.205Z,90.96
2023-03-15T20:07:04.201Z,91.02
2023-03-15T20:09:31.065Z,91.42
2023-03-15T20:11:57.747Z,91.45
2023-03-15T20:14:24.418Z,91.56
2023-03-15T20:16:51.198Z,91.94
2023-03-15T20:19:17.848Z,91.71
2023-03-15T20:21:44.886Z,90.94
2023-03-15T20:24:11.711Z,90.76
2023-03-15T20:26:38.371Z,90.49
2023-03-15T20:29:05.035Z,90.86
2023-03-15T20:31:34.921Z,90.46
2023-03-15T20:34:01.764Z,90.90
2023-03-15T20:36:29.142Z,90.58
2023-03-15T20:38:55.780Z,90.58
2023-03-15T20:41:22.439Z,90.96
2023-03-15T20:43:49.080Z,90.69
2023-03-15T20:46:18.771Z,90.69
2023-03-15T20:48:45.969Z,91.85
2023-03-15T20:51:12.636Z,93.11
2023-03-15T20:53:39.300Z,92.07
2023-03-15T20:56:06.695Z,92.28
2023-03-15T20:58:33.426Z,92.24
2023-03-15T21:01:03.366Z,92.14
2023-03-15T21:03:33.171Z,91.80
2023-03-15T21:06:01.262Z,91.61
2023-03-15T21:08:28.478Z,91.50
2023-03-15T21:10:55.585Z,91.38
2023-03-15T21:13:22.690Z,91.32
2023-03-15T21:15:51.874Z,91.61
2023-03-15T21:18:19.147Z,91.87
2023-03-15T21:20:46.254Z,91.93
2023-03-15T21:23:13.020Z,91.62
2023-03-15T21:25:39.708Z,91.71
2023-03-15T21:28:07.062Z,92.18
2023-03-15T21:30:33.737Z,92.60
2023-03-15T21:33:00.746Z,92.35
2023-03-15T21:35:27.538Z,93.64
2023-03-15T21:37:54.239Z,94.26
2023-03-15T21:40:20.896Z,94.19
2023-03-15T21:42:47.871Z,93.33
2023-03-15T21:45:14.872Z,91.95
2023-03-15T21:47:41.676Z,92.40
2023-03-15T21:50:09.188Z,92.96
2023-03-15T21:52:35.852Z,92.62
2023-03-15T21:55:02.595Z,92.85
2023-03-15T21:57:29.260Z,92.78
2023-03-15T21:59:55.918Z,92.91
2023-03-15T22:02:22.648Z,92.37
2023-03-15T22:04:49.290Z,92.85
2023-03-15T22:07:15.977Z,92.32
2023-03-15T22:09:43.340Z,91.60
2023-03-15T22:12:10.505Z,90.65
2023-03-15T22:14:37.418Z,90.30
2023-03-15T22:17:04.849Z,91.57
2023-03-15T22:19:32.216Z,91.65
2023-03-15T22:21:59.019Z,91.41
2023-03-15T22:24:25.676Z,91.35
2023-03-15T22:26:53.145Z,91.53
2023-03-15T22:29:20.218Z,91.69
2023-03-15T22:31:47.046Z,92.02
2023-03-15T22:34:13.672Z,92.99
2023-03-15T22:36:42.694Z,93.40
2023-03-15T22:39:10.336Z,93.49
2023-03-15T22:41:37.962Z,93.33
2023-03-15T22:44:04.830Z,93.67
2023-03-15T22:46:34.856Z,93.23
2023-03-15T22:49:02.163Z,93.43
2023-03-15T22:51:28.824Z,93.55
2023-03-15T22:53:55.478Z,93.94
2023-03-15T22:56:22.187Z,92.73
2023-03-15T22:58:49.303Z,92.56
2023-03-15T23:01:16.019Z,91.87
2023-03-15T23:03:43.274Z,91.93
2023-03-15T23:06:09.908Z,91.79
2023-03-15T23:08:36.526Z,91.47
2023-03-15T23:11:04.021Z,91.97
2023-03-15T23:13:31.160Z,91.69
2023-03-15T23:15:58.082Z,91.66
2023-03-15T23:18:25.062Z,92.49
2023-03-15T23:20:51.920Z,92.21
2023-03-15T23:23:18.598Z,93.47
2023-03-15T23:25:45.953Z,93.08
2023-03-15T23:28:13.887Z,92.37
2023-03-15T23:30:40.613Z,92.57
2023-03-15T23:33:08.520Z,93.38
2023-03-15T23:35:35.619Z,93.32
2023-03-15T23:38:02.475Z,92.51
2023-03-15T23:40:30.179Z,92.83
2023-03-15T23:42:59.371Z,92.43
2023-03-15T23:45:29.869Z,92.20
2023-03-15T23:47:57.247Z,92.68
2023-03-15T23:50:26.100Z,92.68
2023-03-15T23:52:54.716Z,93.26
2023-03-15T23:55:22.530Z,92.96
2023-03-15T23:57:49.647Z,92.58
